Vicksburg, Mississippi
Current Conditions -  °F | °C
As of 2:35 AM on Thursday 18 Dec 2014 (Local Time) from KVKS Reporting Station
Overcast Overcast  
Wind Chill: 46°   Ceiling: 6000
Heat Index: 46°   Visibility: 10mi
Dew Point: 39°   Wind: 0mph
Humidity: 76%   Direction: NA
Pressure: 30.21"   Gusts: NA
Location:  32.35°N, 90.88°W
Report Text: KVKS 180835Z AUTO 00000KT 10SM BKN060 OVC070 08/04 A3021 RMK A01
Loading
Personal Weather Stations






























Interactive Weather Map New forecast layout! Learn more

10-Day Weather Forecast

Advertisements
Track Severe Weather on mobile